Time;durP1;ratioP1;P1;durP2;ratioP2;P2;SDS_P1;SDS_P2;PMS_P1;PMS_P2;Temp;Humidity;BMP_temperature;BMP_pressure;BME280_temperature;BME280_humidity;BME280_pressure;Samples;Min_cycle;Max_cycle;Signal;HPM_P1;HPM_P2
2024/03/22 00:01:52;;;;;;;20.88;13.60;;;8.60;99.90;;;12.74;95.61;101247.94;5033379;28;20146;-82
2024/03/22 00:04:19;;;;;;;21.27;12.75;;;8.60;99.90;;;12.73;95.21;101243.53;5051123;28;20044;-80
2024/03/22 00:06:47;;;;;;;23.67;13.10;;;8.60;99.90;;;12.77;95.61;101244.78;5048980;28;20134;-81
2024/03/22 00:09:14;;;;;;;20.60;13.13;;;8.70;99.90;;;12.78;96.44;101245.59;5045924;28;20040;-81
2024/03/22 00:11:42;;;;;;;20.48;13.68;;;8.60;99.90;;;12.54;97.95;101245.25;5027803;28;20068;-81
2024/03/22 00:14:08;;;;;;;21.20;13.32;;;8.60;99.90;;;12.72;97.16;101243.72;5051094;28;20547;-81
2024/03/22 00:16:34;;;;;;;22.42;14.63;;;8.60;99.90;;;12.95;95.84;101256.88;5038991;28;20040;-80
2024/03/22 00:19:01;;;;;;;25.83;15.50;;;8.60;99.90;;;12.95;96.75;101245.94;5050905;28;20040;-81
2024/03/22 00:21:28;;;;;;;24.40;14.88;;;8.60;99.90;;;12.45;97.85;101230.97;5026682;28;20033;-81
2024/03/22 00:23:53;;;;;;;27.80;16.23;;;8.70;99.90;;;12.78;97.80;101235.50;5051229;28;20128;-81
2024/03/22 00:26:19;;;;;;;26.98;16.10;;;8.70;99.90;;;12.72;97.69;101232.78;5050522;28;20082;-81
2024/03/22 00:28:45;;;;;;;27.50;16.83;;;8.80;99.90;;;12.65;97.89;101236.41;5049988;28;20516;-81
2024/03/22 00:31:11;;;;;;;26.65;16.73;;;8.80;99.90;;;12.99;97.15;101227.19;5050961;28;20032;-81
2024/03/22 00:33:36;;;;;;;29.13;17.83;;;8.80;99.90;;;12.43;98.29;101240.47;5034143;28;20048;-81
2024/03/22 00:36:03;;;;;;;28.50;17.00;;;8.90;99.90;;;12.75;98.65;101227.72;5048496;28;20035;-81
2024/03/22 00:38:28;;;;;;;29.55;17.90;;;8.90;99.90;;;12.78;97.69;101234.66;5050925;28;20045;-80
2024/03/22 00:40:54;;;;;;;30.60;18.17;;;8.90;99.90;;;13.00;97.54;101226.97;5050687;28;20373;-80
2024/03/22 00:43:20;;;;;;;32.85;18.40;;;8.90;99.90;;;13.05;96.13;101226.28;5050552;28;20383;-81
2024/03/22 00:45:47;;;;;;;30.52;18.65;;;8.90;99.90;;;12.73;98.86;101215.28;5051174;28;20033;-81
2024/03/22 00:48:13;;;;;;;31.02;19.83;;;9.00;99.90;;;12.83;98.67;101204.72;5051280;28;20037;-80
2024/03/22 00:50:39;;;;;;;33.65;18.92;;;9.10;99.90;;;12.98;97.05;101207.16;5051621;28;20040;-79
2024/03/22 00:53:06;;;;;;;30.55;18.15;;;9.10;99.90;;;12.72;98.58;101187.06;5050336;28;20092;-80
2024/03/22 00:55:31;;;;;;;36.53;21.30;;;9.20;99.90;;;12.91;99.26;101198.16;5050270;28;20028;-82
2024/03/22 00:57:57;;;;;;;32.78;20.30;;;9.20;99.90;;;12.87;98.16;101191.44;5050387;28;20185;-81
2024/03/22 01:00:24;;;;;;;37.58;21.77;;;9.20;99.90;;;13.28;95.33;101201.09;5026254;28;20041;-81
2024/03/22 01:02:50;;;;;;;35.60;21.00;;;9.20;99.90;;;12.97;96.65;101193.69;5050187;28;20068;-80
2024/03/22 01:05:17;;;;;;;37.15;21.98;;;9.20;99.90;;;12.89;96.66;101194.78;5044037;28;20115;-83
2024/03/22 01:07:43;;;;;;;37.85;22.23;;;9.30;99.90;;;12.68;99.86;101188.56;5049853;28;20033;-83
2024/03/22 01:10:10;;;;;;;36.30;21.83;;;9.30;99.90;;;12.83;98.63;101176.50;5031478;28;20400;-81
2024/03/22 01:12:35;;;;;;;38.38;22.58;;;9.30;99.90;;;12.89;98.75;101170.16;5049263;28;20032;-82
2024/03/22 01:15:01;;;;;;;38.25;23.02;;;9.40;99.90;;;13.01;98.37;101171.13;5032659;28;20060;-81
2024/03/22 01:17:27;;;;;;;37.80;23.90;;;9.40;99.90;;;13.38;95.54;101157.59;5049878;28;20036;-81
2024/03/22 01:19:52;;;;;;;40.33;23.95;;;9.50;99.90;;;13.11;97.19;101164.31;5049797;28;20041;-82
2024/03/22 01:22:18;;;;;;;42.78;23.25;;;9.50;99.90;;;13.07;97.15;101156.56;5050009;28;20094;-82
2024/03/22 01:24:45;;;;;;;38.42;23.00;;;9.50;99.90;;;13.24;96.49;101156.00;5049407;28;21182;-81
2024/03/22 01:27:11;;;;;;;43.97;24.23;;;9.50;99.90;;;13.14;95.22;101172.94;5049294;28;20036;-82
2024/03/22 01:29:37;;;;;;;38.92;23.67;;;9.50;99.90;;;13.15;95.48;101165.56;5050042;28;20041;-82
2024/03/22 01:32:03;;;;;;;41.63;23.77;;;9.50;99.90;;;13.02;95.32;101170.06;5049845;28;20083;-81
2024/03/22 01:34:29;;;;;;;41.95;24.40;;;9.50;99.90;;;13.38;93.55;101168.53;5049586;28;20041;-81
2024/03/22 01:36:54;;;;;;;41.85;24.48;;;9.60;99.90;;;13.38;93.47;101167.69;5049315;28;20036;-82
2024/03/22 01:39:21;;;;;;;41.42;24.98;;;9.60;99.90;;;13.51;92.98;101147.59;5049741;28;20507;-83
2024/03/22 01:41:48;;;;;;;42.50;25.85;;;9.60;99.90;;;13.33;95.53;101154.69;5049541;28;20084;-79
2024/03/22 01:44:13;;;;;;;44.35;25.40;;;9.60;99.90;;;13.38;93.88;101156.72;5049437;28;20028;-81
2024/03/22 01:46:41;;;;;;;43.03;25.08;;;9.60;99.90;;;13.49;93.42;101138.75;5049358;28;20094;-81
2024/03/22 01:49:13;;;;;;;41.13;25.58;;;9.60;99.90;;;13.56;92.20;101144.19;5040088;28;20033;-82
2024/03/22 01:51:42;;;;;;;43.60;25.60;;;9.60;99.90;;;13.49;94.41;101149.72;5048937;28;20377;-81
2024/03/22 01:54:10;;;;;;;46.28;27.38;;;9.60;99.90;;;13.15;94.85;101114.38;5049697;28;20107;-82
2024/03/22 01:56:39;;;;;;;43.85;26.48;;;9.60;99.90;;;13.49;96.31;101130.53;5049352;28;20099;-81
2024/03/22 01:59:06;;;;;;;47.28;26.60;;;9.60;99.90;;;13.53;94.58;101134.53;5048653;28;20076;-80
2024/03/22 02:01:33;;;;;;;45.92;26.83;;;9.60;99.90;;;13.71;93.16;101130.13;5031807;28;20448;-82
2024/03/22 02:03:59;;;;;;;47.23;26.77;;;9.70;99.90;;;13.24;94.17;101125.84;5049813;28;20044;-80
2024/03/22 02:06:25;;;;;;;47.50;27.60;;;9.70;99.90;;;13.60;93.82;101131.69;5046723;28;20045;-83
2024/03/22 02:08:50;;;;;;;50.05;28.23;;;9.70;99.90;;;13.56;92.23;101120.38;5048930;28;20455;-80
2024/03/22 02:11:16;;;;;;;45.40;27.30;;;9.70;99.90;;;13.75;92.32;101117.63;5049499;28;20484;-82
2024/03/22 02:13:45;;;;;;;46.40;27.30;;;9.70;99.90;;;13.66;92.23;101098.75;5036698;28;20040;-81
2024/03/22 02:16:11;;;;;;;47.47;27.27;;;9.70;99.90;;;13.70;92.50;101088.19;5048501;28;20116;-80
2024/03/22 02:18:37;;;;;;;46.67;27.85;;;9.70;99.90;;;13.91;92.71;101094.25;5031756;28;20400;-81
2024/03/22 02:21:02;;;;;;;47.35;28.10;;;9.70;99.90;;;13.73;91.82;101084.97;5048790;28;20071;-80
2024/03/22 02:23:37;;;;;;;48.30;29.00;;;9.80;99.90;;;13.57;93.31;101083.66;5025846;28;20048;-80
2024/03/22 02:26:04;;;;;;;48.67;27.63;;;9.70;99.90;;;13.81;93.00;101087.41;5053007;28;20158;-82
2024/03/22 02:28:32;;;;;;;46.28;27.33;;;9.80;99.90;;;13.63;92.37;101081.91;5052706;28;20057;-81
2024/03/22 02:30:58;;;;;;;49.40;28.63;;;9.80;99.90;;;13.80;92.25;101077.50;5021952;28;20047;-82
2024/03/22 02:33:24;;;;;;;52.15;29.40;;;9.70;99.90;;;13.42;94.90;101070.28;5052672;28;20052;-81
2024/03/22 02:35:50;;;;;;;52.00;29.75;;;9.80;99.90;;;13.58;94.84;101063.41;5026015;28;20555;-81
2024/03/22 02:38:17;;;;;;;51.22;28.77;;;9.80;99.90;;;13.46;94.86;101054.25;5052687;28;20028;-80
2024/03/22 02:40:44;;;;;;;51.72;28.75;;;9.70;99.90;;;13.70;93.90;101062.66;5051924;28;20174;-81
2024/03/22 02:43:11;;;;;;;47.08;28.23;;;9.70;99.90;;;13.59;94.51;101061.50;5052667;28;20033;-81
2024/03/22 02:45:37;;;;;;;51.35;29.70;;;9.80;99.90;;;13.34;96.93;101056.84;5052513;28;20061;-81
2024/03/22 02:48:03;;;;;;;51.30;29.98;;;9.70;99.90;;;13.53;94.64;101044.06;5052491;28;20519;-80
2024/03/22 02:50:37;;;;;;;51.50;29.60;;;9.80;99.90;;;13.41;96.08;101043.94;5034690;28;20492;-81
2024/03/22 02:53:04;;;;;;;57.83;30.10;;;9.80;99.90;;;13.43;95.53;101043.75;5049705;28;20433;-83
2024/03/22 02:55:30;;;;;;;54.90;30.53;;;9.80;99.90;;;13.63;94.50;101043.53;5052690;28;20029;-80
2024/03/22 02:57:57;;;;;;;53.30;29.98;;;9.80;99.90;;;13.12;96.20;101049.03;5052077;28;20476;-83
2024/03/22 03:00:23;;;;;;;54.63;30.50;;;9.80;99.90;;;13.65;95.01;101044.97;5052203;28;20056;-80
2024/03/22 03:02:50;;;;;;;53.80;28.98;;;9.90;99.90;;;13.51;95.11;101043.44;5052136;28;20543;-82
2024/03/22 03:05:16;;;;;;;57.00;31.30;;;9.90;99.90;;;13.75;94.02;101041.72;5052344;28;20049;-81
2024/03/22 03:07:41;;;;;;;53.15;30.77;;;9.90;99.90;;;13.56;94.24;101016.22;5051378;28;20142;-82
2024/03/22 03:10:07;;;;;;;54.25;29.70;;;9.90;99.90;;;13.68;94.77;101026.41;5051515;28;20044;-82
2024/03/22 03:12:33;;;;;;;53.88;30.92;;;9.90;99.90;;;13.75;95.03;101018.94;5052104;28;20044;-79
2024/03/22 03:14:59;;;;;;;59.58;30.40;;;10.00;99.90;;;13.50;96.07;100987.78;5024772;28;20037;-79
2024/03/22 03:17:25;;;;;;;52.20;28.58;;;10.00;99.90;;;13.57;96.41;101017.88;5051233;28;20044;-81
2024/03/22 03:19:51;;;;;;;58.65;30.60;;;10.00;99.90;;;13.77;95.08;101016.78;5052295;28;20045;-81
2024/03/22 03:22:16;;;;;;;56.38;31.20;;;10.00;99.90;;;13.83;94.42;101002.19;5052033;28;20041;-81
2024/03/22 03:24:43;;;;;;;55.80;29.02;;;10.00;99.90;;;13.63;94.61;100995.03;5051856;28;20481;-81
2024/03/22 03:27:09;;;;;;;55.30;29.33;;;10.00;99.90;;;13.54;95.09;100993.66;5051782;28;20043;-82
2024/03/22 03:29:34;;;;;;;55.80;29.95;;;10.00;99.90;;;13.50;95.80;100998.75;5051581;28;20041;-81
2024/03/22 03:32:00;;;;;;;54.75;29.00;;;10.00;99.90;;;13.68;94.79;100986.13;5051472;28;20044;-80
2024/03/22 03:34:26;;;;;;;53.67;29.52;;;10.00;99.90;;;13.48;96.94;100984.44;5039631;28;20041;-81
2024/03/22 03:36:52;;;;;;;58.97;30.83;;;9.90;99.90;;;13.68;96.29;100980.66;5049422;28;20032;-81
2024/03/22 03:39:17;;;;;;;52.30;28.60;;;10.00;99.90;;;13.35;97.14;100955.25;5052186;28;20527;-80
2024/03/22 03:41:43;;;;;;;54.85;28.60;;;9.90;99.90;;;13.40;98.57;100953.72;5050653;28;20036;-79
2024/03/22 03:44:09;;;;;;;57.05;29.75;;;10.00;99.90;;;13.42;97.72;100955.19;5050801;28;20659;-80
2024/03/22 03:46:34;;;;;;;54.83;28.48;;;10.00;99.90;;;13.65;96.57;100965.47;5051397;28;20036;-81
2024/03/22 03:49:00;;;;;;;56.28;30.05;;;10.00;99.90;;;13.72;95.11;100962.66;5051225;28;20393;-80
2024/03/22 03:51:26;;;;;;;55.78;29.42;;;9.90;99.90;;;13.59;96.27;100957.34;5050920;28;20037;-81
2024/03/22 03:53:51;;;;;;;56.00;28.73;;;9.90;99.90;;;13.55;98.61;100958.84;5051784;28;20430;-81
2024/03/22 03:56:17;;;;;;;54.13;28.55;;;9.90;99.90;;;13.57;96.80;100954.84;5051582;28;20852;-80
2024/03/22 03:58:45;;;;;;;52.97;28.13;;;9.80;99.90;;;13.64;97.36;100952.00;5050554;28;20056;-80
2024/03/22 04:01:11;;;;;;;54.67;28.60;;;9.90;99.90;;;13.56;96.56;100944.94;5051706;28;20040;-80
2024/03/22 04:03:37;;;;;;;56.10;28.80;;;9.90;99.90;;;13.79;95.35;100944.22;5050969;28;20037;-80
2024/03/22 04:06:02;;;;;;;53.60;28.92;;;9.90;99.90;;;13.37;96.17;100941.31;5051258;28;20082;-80
2024/03/22 04:08:30;;;;;;;56.72;29.35;;;9.80;99.90;;;13.69;96.72;100938.44;5050648;28;20072;-82
2024/03/22 04:10:57;;;;;;;55.45;28.85;;;9.80;99.90;;;13.59;96.38;100949.09;5050973;28;20048;-80
2024/03/22 04:13:27;;;;;;;54.88;27.77;;;9.80;99.90;;;13.49;97.80;100949.63;5050616;28;20036;-82
2024/03/22 04:15:53;;;;;;;55.67;29.30;;;9.70;99.90;;;13.24;98.46;100925.88;5050259;28;20047;-81
2024/03/22 04:18:19;;;;;;;54.10;28.40;;;9.70;99.90;;;13.38;98.78;100940.25;5050699;28;20075;-82
2024/03/22 04:20:59;;;;;;;52.80;27.92;;;9.70;99.90;;;13.56;99.60;100938.59;5050486;28;20093;-81
2024/03/22 04:23:26;;;;;;;48.97;27.63;;;9.80;99.90;;;13.65;98.26;100926.25;5032529;28;20044;-82
2024/03/22 04:25:57;;;;;;;49.38;26.65;;;9.70;99.90;;;13.39;98.84;100922.75;5025138;28;20044;-80
2024/03/22 04:28:24;;;;;;;48.85;26.05;;;9.70;99.90;;;13.43;99.00;100909.47;5050828;28;20496;-80
2024/03/22 04:31:04;;;;;;;52.60;27.27;;;9.80;99.90;;;13.54;99.12;100919.66;5050593;28;20041;-80
2024/03/22 04:33:31;;;;;;;53.58;27.55;;;9.80;99.90;;;13.53;98.90;100918.00;5050018;28;20098;-80
2024/03/22 04:35:59;;;;;;;48.13;26.23;;;9.80;99.90;;;13.57;98.52;100907.38;5050654;28;20049;-80
2024/03/22 04:38:26;;;;;;;48.83;25.45;;;9.80;99.90;;;13.31;98.61;100890.19;5049739;28;20111;-81
2024/03/22 04:40:52;;;;;;;48.65;26.13;;;9.80;99.90;;;13.72;98.13;100898.75;5032272;28;22017;-80
2024/03/22 04:43:18;;;;;;;51.40;27.48;;;9.80;99.90;;;13.59;98.74;100895.13;5050540;28;20087;-80
2024/03/22 04:45:45;;;;;;;48.35;25.33;;;9.80;99.90;;;13.36;100.00;100885.69;5051286;28;22055;-80
2024/03/22 04:48:14;;;;;;;52.28;26.30;;;9.80;99.90;;;13.57;98.53;100891.78;5050690;28;20090;-80
2024/03/22 04:50:40;;;;;;;51.10;27.30;;;9.80;99.90;;;13.51;99.14;100879.00;5050018;28;20476;-79
2024/03/22 04:53:06;;;;;;;49.45;25.15;;;9.80;99.90;;;13.44;100.00;100876.34;5051853;28;20047;-80
2024/03/22 04:55:35;;;;;;;47.95;25.23;;;9.80;99.90;;;13.40;100.00;100880.59;5051505;28;20042;-80
2024/03/22 04:58:01;;;;;;;48.58;26.58;;;9.70;99.90;;;13.48;100.00;100874.81;5050507;28;20045;-80
2024/03/22 05:00:30;;;;;;;44.15;25.58;;;9.70;99.90;;;13.25;100.00;100875.47;5051282;28;20029;-80
2024/03/22 05:02:56;;;;;;;48.88;25.50;;;9.70;99.90;;;13.07;100.00;100866.22;5050939;28;20072;-80
2024/03/22 05:05:22;;;;;;;50.53;26.20;;;9.60;99.90;;;13.31;100.00;100866.38;5044631;28;20034;-80
2024/03/22 05:07:47;;;;;;;49.35;24.65;;;9.60;99.90;;;13.32;100.00;100861.72;5048999;28;20255;-80
2024/03/22 05:10:13;;;;;;;51.10;26.50;;;9.60;99.90;;;12.92;100.00;100863.00;5049584;28;20511;-80
2024/03/22 05:12:39;;;;;;;49.83;25.48;;;9.50;99.90;;;12.88;100.00;100843.47;5051201;28;20041;-80
2024/03/22 05:15:06;;;;;;;46.80;25.15;;;9.50;99.90;;;12.99;100.00;100858.28;5051080;28;20486;-79
2024/03/22 05:17:33;;;;;;;49.90;26.30;;;9.50;99.90;;;13.34;100.00;100862.31;5050670;28;20029;-79
2024/03/22 05:19:59;;;;;;;49.58;25.40;;;9.50;99.90;;;13.29;100.00;100862.16;5050462;28;20043;-79
2024/03/22 05:22:25;;;;;;;51.58;24.85;;;9.50;99.90;;;13.40;100.00;100852.34;5049589;28;20040;-79
2024/03/22 05:24:51;;;;;;;48.65;25.95;;;9.50;99.90;;;13.22;100.00;100864.97;5049929;28;20045;-81
2024/03/22 05:27:18;;;;;;;48.63;24.88;;;9.50;99.90;;;13.19;100.00;100849.00;5050201;28;20098;-79
2024/03/22 05:29:44;;;;;;;50.10;26.48;;;9.50;99.90;;;13.29;100.00;100843.84;5050056;28;20484;-82
2024/03/22 05:32:10;;;;;;;47.38;23.77;;;9.50;99.90;;;13.32;100.00;100848.84;5050350;28;20060;-80
2024/03/22 05:34:36;;;;;;;49.47;25.08;;;9.60;99.90;;;13.25;100.00;100837.13;5049541;28;20061;-79
2024/03/22 05:37:03;;;;;;;47.80;25.05;;;9.60;99.90;;;13.39;100.00;100851.50;5047733;28;20025;-80
2024/03/22 05:39:28;;;;;;;50.13;25.70;;;9.70;99.90;;;13.34;100.00;100833.03;5041177;28;20044;-79
2024/03/22 05:41:54;;;;;;;49.47;24.35;;;9.80;99.90;;;13.56;100.00;100835.31;5048547;28;20037;-80
2024/03/22 05:44:22;;;;;;;49.72;24.77;;;9.80;99.90;;;13.57;100.00;100841.59;5050248;28;20036;-80
2024/03/22 05:46:48;;;;;;;54.08;25.83;;;9.90;99.90;;;13.50;100.00;100838.94;5044099;28;20235;-80
2024/03/22 05:49:14;;;;;;;46.15;23.17;;;9.90;99.90;;;13.74;100.00;100842.63;5050039;28;20047;-79
2024/03/22 05:51:39;;;;;;;47.40;24.60;;;10.00;99.90;;;13.44;100.00;100812.47;5049411;28;20036;-80
2024/03/22 05:54:06;;;;;;;48.17;24.05;;;10.00;99.90;;;13.66;100.00;100830.09;5053007;28;20475;-79
2024/03/22 05:56:32;;;;;;;53.88;24.60;;;10.10;99.90;;;13.75;100.00;100827.00;5049229;28;20049;-80
2024/03/22 05:58:57;;;;;;;57.40;25.13;;;10.10;99.90;;;13.71;99.79;100804.72;5052266;28;20045;-80
2024/03/22 06:01:23;;;;;;;47.83;24.52;;;10.20;99.90;;;13.85;99.63;100807.25;5053559;28;20040;-79
2024/03/22 06:03:49;;;;;;;58.38;25.20;;;10.20;99.90;;;13.91;99.86;100815.38;5053016;28;20037;-80
2024/03/22 06:06:16;;;;;;;46.70;23.60;;;10.30;99.90;;;13.85;100.00;100809.97;5052851;28;20048;-81
2024/03/22 06:08:43;;;;;;;51.42;24.63;;;10.30;99.90;;;14.18;98.51;100814.94;5053174;28;20045;-81
2024/03/22 06:11:09;;;;;;;53.30;25.60;;;10.40;99.90;;;13.80;98.54;100810.72;5035780;28;20059;-80
2024/03/22 06:13:36;;;;;;;46.00;24.00;;;10.40;99.90;;;14.03;99.25;100818.13;5053401;28;20037;-80
2024/03/22 06:16:02;;;;;;;46.17;24.15;;;10.40;99.90;;;14.29;97.20;100816.03;5053218;28;20029;-81
2024/03/22 06:18:27;;;;;;;41.38;23.58;;;10.40;99.90;;;14.41;95.96;100805.06;5051872;28;20036;-81
2024/03/22 06:20:54;;;;;;;46.25;23.50;;;10.50;99.90;;;14.43;95.78;100815.78;5052580;28;20036;-79
2024/03/22 06:23:23;;;;;;;47.97;23.55;;;10.50;99.90;;;14.47;95.92;100812.31;5049628;28;20120;-77
2024/03/22 06:25:53;;;;;;;40.08;23.23;;;10.60;99.90;;;14.57;95.36;100810.88;5053052;28;20488;-80
2024/03/22 06:28:19;;;;;;;43.53;23.67;;;10.70;99.90;;;14.29;94.99;100798.72;5050131;28;20091;-79
2024/03/22 06:30:45;;;;;;;44.03;22.98;;;10.70;99.90;;;14.25;96.67;100801.13;5035194;28;20036;-80
2024/03/22 06:33:11;;;;;;;42.15;21.88;;;10.70;99.90;;;14.62;95.00;100809.09;5052745;28;20411;-79
2024/03/22 06:35:37;;;;;;;47.70;23.80;;;10.70;99.90;;;14.21;95.08;100798.00;5053205;28;20111;-80
2024/03/22 06:38:04;;;;;;;42.60;23.67;;;10.70;99.90;;;14.44;96.57;100777.13;5051727;28;20384;-77
2024/03/22 06:40:30;;;;;;;39.15;21.52;;;10.70;99.90;;;14.34;96.94;100802.41;5052213;28;20041;-78
2024/03/22 06:42:56;;;;;;;43.10;21.80;;;10.80;99.90;;;14.55;96.89;100788.31;5016597;28;20133;-79
2024/03/22 06:45:21;;;;;;;44.13;22.17;;;10.90;99.90;;;14.56;97.61;100790.00;5052442;28;20187;-81
2024/03/22 06:47:47;;;;;;;39.97;22.20;;;10.90;99.90;;;14.30;96.24;100792.16;5051824;28;20059;-80
2024/03/22 06:50:13;;;;;;;41.42;22.85;;;10.90;99.90;;;14.62;95.98;100780.81;5052276;28;20512;-77
2024/03/22 06:52:39;;;;;;;38.20;20.25;;;10.90;99.90;;;14.86;93.83;100783.56;5048263;28;20473;-78
2024/03/22 06:55:06;;;;;;;35.10;19.67;;;;;;;15.26;90.88;100792.88;5034089;28;20032;-79
2024/03/22 06:57:33;;;;;;;38.78;21.48;;;11.00;99.90;;;15.31;89.87;100781.97;5052338;28;20064;-79
2024/03/22 06:59:59;;;;;;;39.90;20.75;;;11.10;99.90;;;14.87;91.08;100791.53;5051975;28;20079;-78
2024/03/22 07:02:26;;;;;;;36.22;20.77;;;11.10;99.90;;;15.06;90.87;100794.13;5051397;28;20369;-77
2024/03/22 07:04:52;;;;;;;38.60;20.58;;;11.10;99.90;;;15.17;89.97;100792.41;5052212;28;20465;-78
2024/03/22 07:07:18;;;;;;;40.97;21.23;;;11.20;99.90;;;14.61;94.08;100790.94;5051401;28;20033;-77
2024/03/22 07:09:44;;;;;;;37.78;19.77;;;11.10;99.90;;;14.80;93.99;100786.16;5051018;28;20384;-75
2024/03/22 07:12:10;;;;;;;37.50;19.65;;;11.20;99.90;;;15.10;91.62;100776.88;5050680;28;20106;-77
2024/03/22 07:14:35;;;;;;;38.15;19.73;;;11.20;99.90;;;14.67;93.93;100770.75;5052126;28;20033;-75
2024/03/22 07:17:01;;;;;;;35.17;20.13;;;11.20;99.90;;;15.01;92.00;100769.31;5040902;28;20033;-75
2024/03/22 07:19:28;;;;;;;36.03;19.63;;;;;;;14.69;91.98;100778.78;5052006;28;20396;-77
2024/03/22 07:21:54;;;;;;;36.78;19.60;;;;;;;15.40;89.92;100775.00;5034418;28;20052;-77
2024/03/22 07:24:23;;;;;;;35.92;19.48;;;;;;;15.60;88.11;100763.53;5033810;28;20037;-76
2024/03/22 07:26:49;;;;;;;37.03;20.50;;;;;;;15.47;88.37;100750.94;5051736;28;20465;-75
2024/03/22 07:29:16;;;;;;;35.53;18.70;;;;;;;15.64;86.61;100756.44;5034377;28;20048;-76
2024/03/22 07:31:42;;;;;;;43.30;20.13;;;;;;;16.04;84.84;100746.41;5051288;28;20040;-75
2024/03/22 07:34:08;;;;;;;35.45;18.15;;;;;;;16.14;82.21;100739.41;5034095;28;20065;-76
2024/03/22 07:36:39;;;;;;;35.50;18.35;;;;;;;16.10;81.60;100734.41;5050959;28;20044;-75
2024/03/22 07:39:06;;;;;;;42.42;20.10;;;;;;;16.06;84.44;100748.91;5030945;28;20087;-76
2024/03/22 07:41:35;;;;;;;39.33;19.05;;;;;;;16.37;82.13;100733.69;5051740;28;20099;-76
2024/03/22 07:44:02;;;;;;;35.03;18.52;;;;;;;16.27;81.87;100733.53;5032819;28;20029;-78
2024/03/22 07:46:28;;;;;;;37.00;18.70;;;;;;;16.03;82.79;100741.16;5035311;28;20546;-76
2024/03/22 07:48:55;;;;;;;31.88;18.60;;;;;;;16.30;82.80;100732.22;5051402;28;20049;-77
2024/03/22 07:51:21;;;;;;;30.70;18.15;;;;;;;16.50;81.53;100728.91;5033302;28;20064;-76
2024/03/22 07:53:47;;;;;;;31.35;17.80;;;;;;;16.30;81.56;100741.28;5033196;28;20041;-76
2024/03/22 07:56:15;;;;;;;37.72;18.63;;;;;;;16.20;83.28;100753.00;5051535;28;20043;-76
2024/03/22 07:58:43;;;;;;;33.28;17.67;;;;;;;16.45;82.42;100734.34;5050821;28;20049;-75
2024/03/22 08:01:09;;;;;;;29.30;16.52;;;;;;;16.60;81.08;100736.47;5051300;28;20079;-76
2024/03/22 08:03:35;;;;;;;32.67;16.92;;;;;;;16.59;80.05;100740.31;5051188;28;20055;-77
2024/03/22 08:06:01;;;;;;;28.92;17.50;;;;;;;16.44;81.47;100727.16;5033541;28;20041;-75
2024/03/22 08:08:27;;;;;;;30.95;16.40;;;;;;;16.64;79.36;100732.09;5033221;28;20496;-76
2024/03/22 08:10:53;;;;;;;29.38;16.90;;;;;;;16.32;80.22;100727.28;5051343;28;20115;-77
2024/03/22 08:13:19;;;;;;;30.75;17.33;;;;;;;16.47;78.71;100730.25;5016262;28;20480;-78
2024/03/22 08:15:46;;;;;;;31.23;17.48;;;;;;;16.57;78.45;100734.22;5030275;28;20034;-76
2024/03/22 08:18:13;;;;;;;28.23;15.82;;;;;;;16.41;78.71;100731.25;5050736;28;20051;-78
2024/03/22 08:20:39;;;;;;;29.42;16.42;;;;;;;16.47;80.10;100735.78;5050464;28;20115;-77
2024/03/22 08:23:05;;;;;;;30.10;16.20;;;;;;;16.88;78.16;100723.59;5032710;28;20045;-76
2024/03/22 08:25:32;;;;;;;29.98;15.77;;;;;;;16.67;77.74;100715.06;5031089;28;20040;-77
2024/03/22 08:27:59;;;;;;;28.85;16.02;;;;;;;16.68;78.09;100720.34;5050956;28;20033;-79
2024/03/22 08:30:25;;;;;;;30.35;16.70;;;;;;;16.99;77.42;100719.06;5052019;28;20033;-81
2024/03/22 08:32:52;;;;;;;28.38;15.77;;;;;;;17.07;76.87;100710.31;5052575;28;20462;-79
2024/03/22 08:35:18;;;;;;;28.03;15.73;;;;;;;17.19;75.12;100713.78;5034682;28;20032;-80
2024/03/22 08:37:44;;;;;;;26.27;15.07;;;;;;;17.30;73.46;100709.22;5052178;28;20044;-82
2024/03/22 08:40:11;;;;;;;27.42;16.17;;;;;;;17.08;74.96;100709.22;5052224;28;20512;-83
2024/03/22 08:42:37;;;;;;;24.42;14.82;;;;;;;17.17;74.54;100706.84;5052769;28;20080;-83
2024/03/22 08:45:04;;;;;;;25.92;15.40;;;;;;;17.29;73.69;100701.19;5052844;28;20029;-82
2024/03/22 08:47:31;;;;;;;24.65;14.70;;;;;;;17.15;73.03;100704.38;5053652;28;20551;-80
2024/03/22 08:49:57;;;;;;;24.50;14.93;;;;;;;16.83;76.65;100725.19;5034776;28;20131;-81
2024/03/22 08:52:24;;;;;;;25.60;15.10;;;;;;;16.80;75.68;100711.94;5052342;28;20037;-82
2024/03/22 08:54:52;;;;;;;24.55;14.95;;;;;;;17.10;75.19;100702.38;5052211;28;20044;-83
2024/03/22 08:57:19;;;;;;;28.95;16.13;;;;;;;17.38;73.13;100696.88;5034754;28;20036;-79
2024/03/22 08:59:45;;;;;;;24.50;14.20;;;;;;;17.35;72.34;100692.72;5052034;28;20083;-81
2024/03/22 09:02:12;;;;;;;27.85;15.60;;;;;;;17.62;71.36;100691.84;5050536;28;20048;-80
2024/03/22 09:04:39;;;;;;;28.92;14.30;;;;;;;17.54;71.57;100695.91;5048737;28;20057;-78
2024/03/22 09:07:05;;;;;;;28.67;15.38;;;;;;;17.21;72.62;100697.81;5049294;28;20029;-79
2024/03/22 09:09:31;;;;;;;24.90;14.50;;;;;;;17.20;73.34;100701.66;5049054;28;20033;-78
2024/03/22 09:11:57;;;;;;;22.67;14.15;;;;;;;17.22;72.60;100693.13;5030388;28;20044;-80
2024/03/22 09:14:23;;;;;;;25.45;14.35;;;;;;;17.28;72.78;100686.59;5051150;28;20033;-78
2024/03/22 09:16:49;;;;;;;24.83;13.93;;;;;;;17.52;71.71;100697.28;5049775;28;20045;-79
2024/03/22 09:19:16;;;;;;;24.38;15.20;;;;;;;17.46;71.48;100681.75;5050159;28;20123;-78
2024/03/22 09:21:42;;;;;;;27.25;14.77;;;;;;;17.67;71.15;100680.84;5051600;28;20037;-79
2024/03/22 09:24:09;;;;;;;23.48;13.95;;;;;;;17.87;69.84;100672.97;5051276;28;20071;-78
2024/03/22 09:26:35;;;;;;;24.27;14.40;;;;;;;17.79;69.48;100668.81;5051599;28;20048;-79
2024/03/22 09:29:03;;;;;;;27.33;14.40;;;;;;;17.73;69.01;100665.16;5034102;28;20128;-78
2024/03/22 09:31:30;;;;;;;22.95;13.68;;;;;;;17.31;70.30;100665.91;5037105;28;20041;-78
2024/03/22 09:33:56;;;;;;;21.23;13.32;;;;;;;17.36;72.12;100671.47;5057930;28;20124;-78
2024/03/22 09:36:22;;;;;;;21.70;13.43;;;;;;;17.11;71.00;100665.47;5022764;28;20507;-78
2024/03/22 09:38:48;;;;;;;22.10;12.70;;;;;;;17.67;71.04;100661.53;5038266;28;20080;-79
2024/03/22 09:41:15;;;;;;;24.83;13.98;;;;;;;17.43;70.32;100649.19;5056105;28;20045;-78
2024/03/22 09:43:46;;;;;;;22.95;13.32;;;;;;;17.26;70.89;100652.94;5055852;28;20057;-78
2024/03/22 09:46:14;;;;;;;21.10;12.57;;;;;;;17.23;71.67;100647.91;5055980;28;20036;-79
2024/03/22 09:48:42;;;;;;;22.08;12.45;;;;;;;17.30;70.17;100648.56;5055694;28;20025;-78
2024/03/22 09:51:09;;;;;;;23.17;12.77;;;;;;;17.29;69.82;100635.88;5056216;28;20447;-78
2024/03/22 09:53:37;;;;;;;22.88;12.38;;;;;;;17.00;70.24;100636.16;5055716;28;20057;-78
2024/03/22 09:56:03;;;;;;;20.60;12.32;;;;;;;17.26;70.05;100628.13;5055639;28;20037;-78
2024/03/22 09:58:29;;;;;;;20.75;11.70;;;;;;;17.20;69.74;100621.72;5055343;28;20550;-78
2024/03/22 10:01:00;;;;;;;23.45;12.18;;;;;;;17.35;68.57;100610.00;5037669;28;20119;-79
2024/03/22 10:03:26;;;;;;;19.73;11.77;;;;;;;17.23;68.09;100614.84;5037776;28;20040;-77
2024/03/22 10:05:52;;;;;;;18.70;11.07;;;;;;;17.31;67.63;100624.56;5054170;28;20041;-78
2024/03/22 10:08:18;;;;;;;19.90;11.05;;;;;;;17.37;67.43;100624.34;5055530;28;20040;-78
2024/03/22 10:10:44;;;;;;;18.10;10.60;;;;;;;17.36;66.80;100622.69;5037438;28;20051;-78
2024/03/22 10:13:10;;;;;;;21.20;12.02;;;;;;;17.32;65.93;100610.53;5055597;28;20478;-78
2024/03/22 10:15:36;;;;;;;18.15;10.93;;;;;;;17.34;64.68;100599.22;5055175;28;20029;-78
2024/03/22 10:18:04;;;;;;;17.55;11.60;;;;;;;17.15;66.62;100607.91;5055156;28;20037;-78
2024/03/22 10:20:30;;;;;;;18.77;11.18;;;;;;;17.58;64.59;100598.84;5055089;28;20113;-78